createdAt,value
2018-02-06T00:00:35.634Z,0.00
2018-02-06T00:02:29.030Z,0.00
2018-02-06T00:03:29.010Z,0.00
2018-02-06T00:05:22.384Z,0.00
2018-02-06T00:06:22.385Z,0.00
2018-02-06T00:08:15.780Z,0.00
2018-02-06T00:09:15.760Z,0.00
2018-02-06T00:11:09.133Z,0.00
2018-02-06T00:12:09.132Z,0.00
2018-02-06T00:14:02.538Z,0.00
2018-02-06T00:15:02.519Z,0.00
2018-02-06T00:16:55.891Z,0.00
2018-02-06T00:17:55.889Z,0.00
2018-02-06T00:19:49.284Z,0.00
2018-02-06T00:20:49.264Z,0.00
2018-02-06T00:22:42.640Z,0.00
2018-02-06T00:23:42.639Z,0.00
2018-02-06T00:25:36.032Z,0.00
2018-02-06T00:26:36.013Z,0.00
2018-02-06T00:28:29.389Z,0.00
2018-02-06T00:29:29.386Z,0.00
2018-02-06T00:31:22.286Z,0.00
2018-02-06T00:32:22.265Z,0.00
2018-02-06T00:34:15.640Z,0.00
2018-02-06T00:35:15.638Z,0.00
2018-02-06T00:37:09.033Z,0.00
2018-02-06T00:38:09.012Z,0.00
2018-02-06T00:40:02.387Z,0.00
2018-02-06T00:41:02.386Z,0.00
2018-02-06T00:42:55.780Z,0.00
2018-02-06T00:43:55.762Z,0.00
2018-02-06T00:45:49.140Z,0.00
2018-02-06T00:46:49.136Z,0.00
2018-02-06T00:48:42.531Z,0.00
2018-02-06T00:49:42.511Z,0.00
2018-02-06T00:51:35.888Z,0.00
2018-02-06T00:52:35.887Z,0.00
2018-02-06T00:54:29.279Z,0.00
2018-02-06T00:55:29.261Z,0.00
2018-02-06T00:57:22.637Z,0.00
2018-02-06T00:58:22.633Z,0.00
2018-02-06T01:00:16.029Z,0.00
2018-02-06T01:01:16.007Z,0.00
2018-02-06T01:03:09.385Z,0.00
2018-02-06T01:04:09.384Z,0.00
2018-02-06T01:06:02.780Z,0.00
2018-02-06T01:07:02.759Z,0.00
2018-02-06T01:08:56.154Z,0.00
2018-02-06T01:09:56.132Z,0.00
2018-02-06T01:11:49.510Z,0.00
2018-02-06T01:12:49.509Z,0.00
2018-02-06T01:14:42.901Z,0.00
2018-02-06T01:15:42.880Z,0.00
2018-02-06T01:17:36.258Z,0.00
2018-02-06T01:18:36.256Z,0.00
2018-02-06T01:20:29.654Z,0.00
2018-02-06T01:21:29.634Z,0.00
2018-02-06T01:23:23.010Z,0.00
2018-02-06T01:24:23.008Z,0.00
2018-02-06T01:26:16.404Z,0.00
2018-02-06T01:27:16.384Z,0.00
2018-02-06T01:29:09.756Z,0.00
2018-02-06T01:30:09.756Z,0.00
2018-02-06T01:32:03.151Z,0.00
2018-02-06T01:33:03.133Z,0.00
2018-02-06T01:34:56.506Z,0.00
2018-02-06T01:35:56.505Z,0.00
2018-02-06T01:37:49.901Z,0.00
2018-02-06T01:38:49.880Z,0.00
2018-02-06T01:40:43.258Z,0.00
2018-02-06T01:41:43.255Z,0.00
2018-02-06T01:43:36.651Z,0.00
2018-02-06T01:44:36.629Z,0.00
2018-02-06T01:46:30.030Z,0.00
2018-02-06T01:47:30.003Z,0.00
2018-02-06T01:49:23.379Z,0.00
2018-02-06T01:50:23.378Z,0.00
2018-02-06T01:52:16.773Z,0.00
2018-02-06T01:53:16.755Z,0.00
2018-02-06T01:55:10.129Z,0.00
2018-02-06T01:56:10.129Z,0.00
2018-02-06T01:58:03.523Z,0.00
2018-02-06T01:59:03.502Z,0.00
2018-02-06T02:00:56.383Z,0.00
2018-02-06T02:01:56.382Z,0.00
2018-02-06T02:03:49.778Z,0.00
2018-02-06T02:04:49.759Z,0.00
2018-02-06T02:06:43.133Z,0.00
2018-02-06T02:07:43.132Z,0.00
2018-02-06T02:09:36.526Z,0.00
2018-02-06T02:10:36.511Z,0.00
2018-02-06T02:12:29.890Z,0.00
2018-02-06T02:13:29.892Z,0.00
2018-02-06T02:15:23.288Z,0.00
2018-02-06T02:16:23.264Z,0.00
2018-02-06T02:18:16.640Z,0.00
2018-02-06T02:19:16.641Z,0.00
2018-02-06T02:21:09.540Z,0.00
2018-02-06T02:22:09.517Z,0.00
2018-02-06T02:24:02.895Z,0.00
2018-02-06T02:25:02.894Z,0.00
2018-02-06T02:26:56.293Z,0.00
2018-02-06T02:27:56.273Z,0.00
2018-02-06T02:29:49.152Z,0.00
2018-02-06T02:30:49.257Z,0.00
2018-02-06T02:32:42.542Z,0.00
2018-02-06T02:33:42.527Z,0.00
2018-02-06T02:35:35.922Z,0.00
2018-02-06T02:36:35.898Z,0.00
2018-02-06T02:38:29.276Z,0.00
2018-02-06T02:39:29.279Z,0.00
2018-02-06T02:41:22.668Z,0.00
2018-02-06T04:39:51.050Z,0.00
2018-02-06T04:40:51.158Z,0.00
2018-02-06T04:42:44.446Z,0.00
2018-02-06T04:43:44.461Z,0.00
2018-02-06T04:45:37.851Z,0.00
2018-02-06T04:46:37.829Z,0.00
2018-02-06T04:48:31.231Z,0.00
2018-02-06T04:49:31.184Z,0.00
2018-02-06T04:51:24.562Z,0.00
2018-02-06T04:52:24.569Z,0.00
2018-02-06T04:54:17.987Z,0.00
2018-02-06T04:55:17.935Z,0.00
2018-02-06T04:57:11.326Z,0.00
2018-02-06T04:58:11.321Z,0.00
2018-02-06T05:00:04.720Z,0.00
2018-02-06T05:01:04.705Z,0.00
2018-02-06T05:02:58.130Z,0.00
2018-02-06T05:03:58.079Z,0.00
2018-02-06T05:05:51.455Z,0.00
2018-02-06T05:06:51.462Z,0.00
2018-02-06T05:08:44.861Z,0.00
2018-02-06T05:09:44.852Z,0.00
2018-02-06T05:11:38.245Z,0.00
2018-02-06T05:12:38.219Z,0.00
2018-02-06T05:14:31.623Z,0.00
2018-02-06T05:15:31.595Z,0.00
2018-02-06T05:17:24.973Z,0.00
2018-02-06T05:18:24.971Z,0.00
2018-02-06T05:20:18.391Z,0.00
2018-02-06T05:21:18.349Z,0.00
2018-02-06T05:23:11.723Z,0.00
2018-02-06T05:24:11.728Z,0.00
2018-02-06T05:26:05.118Z,0.00
2018-02-06T05:27:05.107Z,0.00
2018-02-06T05:28:58.477Z,0.00
2018-02-06T05:29:58.499Z,0.00
2018-02-06T05:31:51.895Z,0.00
2018-02-06T05:32:51.852Z,0.00
2018-02-06T05:34:45.230Z,0.00
2018-02-06T05:35:45.232Z,0.00
2018-02-06T05:37:38.625Z,0.00
2018-02-06T05:38:38.607Z,0.00
2018-02-06T05:40:31.985Z,0.00
2018-02-06T05:41:31.988Z,0.00
2018-02-06T05:43:25.385Z,0.00
2018-02-06T05:44:25.362Z,0.00
2018-02-06T05:46:18.771Z,0.00
2018-02-06T05:47:18.738Z,0.00
2018-02-06T05:49:12.115Z,0.00
2018-02-06T05:50:12.124Z,0.00
2018-02-06T05:52:05.513Z,0.00
2018-02-06T05:53:05.492Z,0.00
2018-02-06T05:54:58.867Z,0.00
2018-02-06T05:55:58.876Z,0.00
2018-02-06T05:57:52.265Z,0.00
2018-02-06T05:58:52.246Z,0.00
2018-02-06T06:00:45.623Z,0.00
2018-02-06T06:01:45.621Z,0.00
2018-02-06T06:03:39.062Z,0.00
2018-02-06T06:04:39.006Z,0.00
2018-02-06T06:06:32.380Z,0.00
2018-02-06T06:07:32.377Z,0.00
2018-02-06T06:09:26.798Z,0.00
2018-02-06T06:10:26.749Z,0.00
2018-02-06T06:12:20.144Z,0.00
2018-02-06T06:13:20.137Z,0.00
2018-02-06T06:15:13.530Z,0.00
2018-02-06T06:16:13.512Z,4.00
2018-02-06T06:18:06.909Z,0.00
2018-02-06T06:19:06.886Z,4.00
2018-02-06T06:21:00.269Z,4.00
2018-02-06T06:22:00.271Z,8.00
2018-02-06T06:23:53.667Z,8.00
2018-02-06T06:24:53.662Z,8.00
2018-02-06T06:26:47.024Z,12.00
2018-02-06T06:27:47.022Z,12.00
2018-02-06T06:29:40.432Z,16.00
2018-02-06T06:30:40.414Z,20.00
2018-02-06T06:32:33.778Z,28.00
2018-02-06T06:33:33.776Z,36.00
2018-02-06T06:35:27.174Z,44.00
2018-02-06T06:36:27.155Z,48.00
2018-02-06T06:38:20.542Z,56.00
2018-02-06T06:39:20.562Z,64.00
2018-02-06T06:41:13.944Z,76.00
2018-02-06T06:42:13.922Z,84.00
2018-02-06T06:44:07.300Z,100.00
2018-02-06T06:45:07.300Z,108.00
2018-02-06T06:47:00.696Z,132.00
2018-02-06T06:48:00.679Z,140.00
2018-02-06T06:49:54.058Z,164.00
2018-02-06T06:50:54.057Z,180.00
2018-02-06T06:52:47.454Z,208.00
2018-02-06T06:53:47.436Z,228.00
2018-02-06T06:55:40.850Z,280.00
2018-02-06T06:56:40.815Z,316.00
2018-02-06T06:58:34.207Z,372.00
2018-02-06T06:59:34.192Z,404.00
2018-02-06T07:01:27.598Z,456.00
2018-02-06T07:02:27.595Z,492.00
2018-02-06T07:04:20.948Z,556.00
2018-02-06T07:05:20.948Z,560.00
2018-02-06T07:07:14.362Z,588.00
2018-02-06T07:08:14.340Z,616.00
2018-02-06T07:10:07.710Z,720.00
2018-02-06T07:11:07.708Z,752.00
2018-02-06T07:13:01.116Z,760.00
2018-02-06T07:14:01.095Z,744.00
2018-02-06T07:15:54.471Z,756.00
2018-02-06T07:16:54.471Z,756.00
2018-02-06T07:18:47.912Z,820.00
2018-02-06T07:19:47.861Z,852.00
2018-02-06T07:21:41.267Z,924.00
2018-02-06T07:22:41.269Z,948.00
2018-02-06T07:24:34.684Z,1028.00
2018-02-06T07:25:34.663Z,1136.00
2018-02-06T07:27:28.057Z,1584.00
2018-02-06T07:28:28.037Z,1724.00
2018-02-06T07:30:21.457Z,1612.00
2018-02-06T07:31:21.439Z,1536.00
2018-02-06T07:33:14.816Z,1444.00
2018-02-06T07:34:14.799Z,1448.00
2018-02-06T07:36:08.174Z,1440.00
2018-02-06T07:37:08.178Z,1420.00
2018-02-06T07:39:01.572Z,1428.00
2018-02-06T07:40:01.552Z,1468.00
2018-02-06T07:41:54.928Z,1468.00
2018-02-06T07:42:54.933Z,1456.00
2018-02-06T07:44:48.333Z,1560.00
2018-02-06T07:45:48.314Z,1732.00
2018-02-06T07:47:41.688Z,2124.00
2018-02-06T07:48:41.692Z,2244.00
2018-02-06T07:50:35.086Z,2244.00
2018-02-06T07:51:35.068Z,2404.00
2018-02-06T07:53:28.446Z,2552.00
2018-02-06T07:54:28.477Z,2744.00
2018-02-06T07:56:21.854Z,2744.00
2018-02-06T07:57:21.834Z,2844.00
2018-02-06T07:59:15.213Z,2756.00
2018-02-06T08:00:15.228Z,2652.00
2018-02-06T08:02:08.635Z,2792.00
2018-02-06T08:03:08.594Z,2652.00
2018-02-06T08:05:02.969Z,2956.00
2018-02-06T08:06:02.983Z,2884.00
2018-02-06T08:07:56.389Z,2584.00
2018-02-06T08:08:56.347Z,2516.00
2018-02-06T08:10:49.726Z,2612.00
2018-02-06T08:11:49.734Z,2788.00
2018-02-06T08:13:43.123Z,3080.00
2018-02-06T08:14:43.110Z,3052.00
2018-02-06T08:16:36.486Z,3344.00
2018-02-06T08:17:36.482Z,3364.00
2018-02-06T08:19:29.880Z,4056.00
2018-02-06T08:20:29.860Z,4020.00
2018-02-06T08:22:23.297Z,4332.00
2018-02-06T08:23:23.271Z,4468.00
2018-02-06T08:25:16.652Z,4560.00
2018-02-06T08:26:16.651Z,4712.00
2018-02-06T08:28:10.047Z,4680.00
2018-02-06T08:29:10.045Z,4968.00
2018-02-06T08:31:03.418Z,4752.00
2018-02-06T08:32:03.410Z,4592.00
2018-02-06T08:33:56.805Z,4600.00
2018-02-06T08:34:56.786Z,4772.00
2018-02-06T08:36:50.162Z,4920.00
2018-02-06T08:37:50.162Z,5004.00
2018-02-06T08:39:43.558Z,5396.00
2018-02-06T08:40:43.546Z,5444.00
2018-02-06T08:42:36.918Z,6032.00
2018-02-06T08:43:36.928Z,5900.00
2018-02-06T08:45:30.310Z,6072.00
2018-02-06T08:46:30.293Z,6352.00
2018-02-06T08:48:23.688Z,6684.00
2018-02-06T08:49:23.676Z,6496.00
2018-02-06T08:51:17.071Z,6160.00
2018-02-06T08:52:17.052Z,5472.00
2018-02-06T08:54:10.433Z,5652.00
2018-02-06T08:55:10.429Z,5564.00
2018-02-06T08:57:03.828Z,5800.00
2018-02-06T08:58:03.808Z,5792.00
2018-02-06T08:59:57.193Z,5748.00
2018-02-06T09:00:57.188Z,5808.00
2018-02-06T09:02:50.590Z,5740.00
2018-02-06T09:03:50.568Z,5164.00
2018-02-06T09:05:43.945Z,5052.00
2018-02-06T09:06:43.968Z,5968.00
2018-02-06T09:08:37.385Z,5588.00
2018-02-06T09:09:37.343Z,4600.00
2018-02-06T09:11:30.738Z,4280.00
2018-02-06T09:12:30.724Z,4760.00
2018-02-06T09:14:24.128Z,5032.00
2018-02-06T09:15:24.118Z,5188.00
2018-02-06T09:17:17.514Z,5924.00
2018-02-06T09:18:17.493Z,5848.00
2018-02-06T09:20:10.861Z,5724.00
2018-02-06T09:21:10.876Z,6068.00
2018-02-06T09:23:04.285Z,6196.00
2018-02-06T09:24:04.242Z,6144.00
2018-02-06T09:25:57.625Z,6016.00
2018-02-06T09:26:57.623Z,6376.00
2018-02-06T09:28:51.035Z,6836.00
2018-02-06T09:29:51.007Z,6856.00
2018-02-06T09:31:44.405Z,7024.00
2018-02-06T09:32:44.398Z,7076.00
2018-02-06T09:34:37.808Z,4796.00
2018-02-06T09:35:37.788Z,5744.00
2018-02-06T09:37:31.169Z,5828.00
2018-02-06T09:38:31.176Z,6032.00
2018-02-06T09:40:24.568Z,6332.00
2018-02-06T09:41:24.553Z,6036.00
2018-02-06T09:43:17.933Z,5432.00
2018-02-06T09:44:17.930Z,5244.00
2018-02-06T09:46:11.339Z,5672.00
2018-02-06T09:47:11.319Z,6004.00
2018-02-06T09:49:04.712Z,6364.00
2018-02-06T09:50:04.711Z,6664.00
2018-02-06T09:51:58.108Z,7252.00
2018-02-06T09:52:58.091Z,7468.00
2018-02-06T09:54:51.475Z,7952.00
2018-02-06T09:55:51.477Z,7832.00
2018-02-06T09:57:44.872Z,6696.00
2018-02-06T09:58:44.853Z,6160.00
2018-02-06T10:00:38.295Z,6088.00
2018-02-06T10:01:38.234Z,6212.00
2018-02-06T10:03:31.613Z,6064.00
2018-02-06T10:04:31.612Z,5916.00
2018-02-06T10:06:25.014Z,5200.00
2018-02-06T10:07:24.989Z,4944.00
2018-02-06T10:09:18.370Z,4832.00
2018-02-06T10:10:18.381Z,4924.00
2018-02-06T10:12:11.777Z,5380.00
2018-02-06T10:13:11.760Z,5824.00
2018-02-06T10:15:05.140Z,6000.00
2018-02-06T10:16:05.138Z,6132.00
2018-02-06T10:17:58.537Z,6244.00
2018-02-06T10:18:58.517Z,6104.00
2018-02-06T10:20:51.901Z,6528.00
2018-02-06T10:21:51.898Z,6780.00
2018-02-06T10:23:45.326Z,6692.00
2018-02-06T10:24:45.284Z,6484.00
2018-02-06T10:26:38.671Z,6236.00
2018-02-06T10:27:38.695Z,6400.00
2018-02-06T10:29:32.071Z,6032.00
2018-02-06T10:30:32.058Z,6396.00
2018-02-06T10:32:25.435Z,7356.00
2018-02-06T10:33:25.441Z,7792.00
2018-02-06T10:35:18.836Z,7780.00
2018-02-06T10:36:18.823Z,7604.00
2018-02-06T10:38:12.270Z,7988.00
2018-02-06T10:39:12.276Z,7676.00
2018-02-06T10:41:05.676Z,7104.00
2018-02-06T10:42:05.702Z,6904.00
2018-02-06T10:43:59.034Z,6156.00
2018-02-06T10:44:59.041Z,6136.00
2018-02-06T10:46:52.433Z,6272.00
2018-02-06T10:47:52.435Z,6000.00
2018-02-06T10:49:45.816Z,5460.00
2018-02-06T10:50:45.799Z,5512.00
2018-02-06T10:52:40.192Z,6060.00
2018-02-06T10:53:40.188Z,6676.00
2018-02-06T10:55:33.601Z,6964.00
2018-02-06T10:56:33.590Z,6944.00
2018-02-06T10:58:26.966Z,7636.00
2018-02-06T10:59:26.985Z,8152.00
2018-02-06T11:01:20.362Z,8032.00
2018-02-06T11:02:20.344Z,8336.00
2018-02-06T11:04:13.730Z,8316.00
2018-02-06T11:05:13.734Z,8452.00
2018-02-06T11:07:07.149Z,9208.00
2018-02-06T11:08:07.121Z,9212.00
2018-02-06T11:10:00.592Z,9112.00
2018-02-06T11:11:00.502Z,9612.00
2018-02-06T11:12:53.879Z,10332.00
2018-02-06T11:13:53.882Z,10236.00
2018-02-06T11:15:47.289Z,9456.00
2018-02-06T11:16:47.276Z,9536.00
2018-02-06T11:18:40.645Z,10528.00
2018-02-06T11:19:40.648Z,10820.00
2018-02-06T11:21:34.067Z,11328.00
2018-02-06T11:22:34.032Z,10860.00
2018-02-06T11:24:27.414Z,11392.00
2018-02-06T11:25:27.417Z,11504.00
2018-02-06T11:27:20.813Z,10608.00
2018-02-06T11:28:20.797Z,10308.00
2018-02-06T11:30:14.180Z,9840.00
2018-02-06T11:31:14.180Z,9872.00
2018-02-06T11:33:07.583Z,9864.00
2018-02-06T11:34:07.565Z,9732.00
2018-02-06T11:36:00.950Z,10580.00
2018-02-06T11:37:00.958Z,12032.00
2018-02-06T11:38:54.367Z,14432.00
2018-02-06T11:39:54.345Z,15328.00
2018-02-06T11:41:47.732Z,17184.00
2018-02-06T11:42:47.733Z,15932.00
2018-02-06T11:44:41.141Z,14192.00
2018-02-06T11:45:41.117Z,14048.00
2018-02-06T11:47:34.501Z,13996.00
2018-02-06T11:48:34.511Z,13676.00
2018-02-06T11:50:27.905Z,15476.00
2018-02-06T11:51:27.889Z,16832.00
2018-02-06T11:53:21.297Z,13212.00
2018-02-06T11:54:21.278Z,13680.00
2018-02-06T11:56:14.670Z,15152.00
2018-02-06T11:57:14.666Z,14984.00
2018-02-06T11:59:08.065Z,14412.00
2018-02-06T12:00:08.049Z,13804.00
2018-02-06T12:02:01.429Z,15012.00
2018-02-06T12:03:01.445Z,16640.00
2018-02-06T12:04:54.840Z,18656.00
2018-02-06T12:05:54.835Z,17568.00
2018-02-06T12:07:48.269Z,20832.00
2018-02-06T12:08:48.269Z,32064.00
2018-02-06T12:10:41.673Z,26432.00
2018-02-06T12:11:41.659Z,27328.00
2018-02-06T12:13:35.043Z,22720.00
2018-02-06T12:14:35.044Z,21344.00
2018-02-06T12:16:28.448Z,24288.00
2018-02-06T12:17:28.433Z,24448.00
2018-02-06T12:19:21.834Z,26560.00
2018-02-06T12:20:21.836Z,22656.00
2018-02-06T12:22:15.226Z,26048.00
2018-02-06T12:23:15.211Z,36640.00
2018-02-06T12:25:08.599Z,30784.00
2018-02-06T12:26:08.606Z,24192.00
2018-02-06T12:28:02.004Z,30048.00
2018-02-06T12:29:01.990Z,36000.00
2018-02-06T12:30:55.381Z,20192.00
2018-02-06T12:31:55.384Z,22432.00
2018-02-06T12:33:48.790Z,22816.00
2018-02-06T12:34:48.776Z,21920.00
2018-02-06T12:36:42.160Z,24224.00
2018-02-06T12:37:42.191Z,17408.00
2018-02-06T12:39:35.573Z,21472.00
2018-02-06T12:40:35.561Z,23968.00
2018-02-06T12:42:29.016Z,20544.00
2018-02-06T12:43:28.959Z,19936.00
2018-02-06T12:45:22.347Z,22944.00
2018-02-06T12:46:22.351Z,21600.00
2018-02-06T12:48:15.756Z,23296.00
2018-02-06T12:49:15.745Z,22560.00
2018-02-06T12:51:09.132Z,22688.00
2018-02-06T12:52:09.133Z,22240.00
2018-02-06T12:54:02.536Z,19584.00
2018-02-06T12:55:02.528Z,19488.00
2018-02-06T12:56:55.913Z,24864.00
2018-02-06T12:57:55.915Z,18624.00
2018-02-06T12:59:49.324Z,21760.00
2018-02-06T13:00:49.308Z,30240.00
2018-02-06T13:02:42.694Z,31104.00
2018-02-06T13:03:42.696Z,24352.00
2018-02-06T13:05:36.102Z,19648.00
2018-02-06T13:06:36.085Z,27552.00
2018-02-06T13:08:29.474Z,17312.00
2018-02-06T13:09:29.477Z,16784.00
2018-02-06T13:11:22.883Z,18464.00
2018-02-06T13:12:22.870Z,15740.00
2018-02-06T13:14:16.258Z,13364.00
2018-02-06T13:15:16.262Z,18496.00
2018-02-06T13:17:09.669Z,28608.00
2018-02-06T13:18:09.655Z,29760.00
2018-02-06T13:20:03.069Z,36576.00
2018-02-06T13:21:03.044Z,39008.00
2018-02-06T13:22:56.434Z,28800.00
2018-02-06T13:23:56.437Z,31808.00
2018-02-06T13:25:49.881Z,32928.00
2018-02-06T13:26:49.832Z,37792.00
2018-02-06T13:28:43.266Z,32416.00
2018-02-06T13:29:43.273Z,27424.00
2018-02-06T13:31:36.679Z,29952.00
2018-02-06T13:32:36.683Z,29280.00
2018-02-06T13:34:30.056Z,20192.00
2018-02-06T13:35:30.062Z,17312.00
2018-02-06T13:37:23.465Z,14616.00
2018-02-06T13:38:23.453Z,15524.00
2018-02-06T13:40:17.841Z,20128.00
2018-02-06T13:41:17.844Z,21696.00
2018-02-06T13:43:11.286Z,24864.00
2018-02-06T13:44:11.274Z,23552.00
2018-02-06T13:46:04.658Z,23136.00
2018-02-06T13:47:04.670Z,17120.00
2018-02-06T13:48:58.071Z,13516.00
2018-02-06T13:49:58.059Z,12964.00
2018-02-06T13:51:51.447Z,13808.00
2018-02-06T13:52:51.453Z,12964.00
2018-02-06T13:54:44.862Z,12020.00
2018-02-06T13:55:44.850Z,10956.00
2018-02-06T13:57:38.252Z,11480.00
2018-02-06T13:58:38.251Z,10992.00
2018-02-06T14:00:31.652Z,11116.00
2018-02-06T14:01:31.639Z,11440.00
2018-02-06T14:03:25.028Z,12584.00
2018-02-06T14:04:25.037Z,13156.00
2018-02-06T14:06:18.440Z,13180.00
2018-02-06T14:07:18.423Z,13064.00
2018-02-06T14:09:11.809Z,12404.00
2018-02-06T14:10:11.817Z,12088.00
2018-02-06T14:12:05.218Z,11944.00
2018-02-06T14:13:05.208Z,11788.00
2018-02-06T14:14:58.645Z,11288.00
2018-02-06T14:15:58.592Z,11296.00
2018-02-06T14:17:51.985Z,11140.00
2018-02-06T14:18:51.995Z,10792.00
2018-02-06T14:20:45.400Z,10508.00
2018-02-06T14:21:45.380Z,10364.00
2018-02-06T14:23:38.766Z,10384.00
2018-02-06T14:24:38.768Z,10396.00
2018-02-06T14:26:32.188Z,10100.00
2018-02-06T14:27:32.168Z,10172.00
2018-02-06T14:29:25.562Z,9932.00
2018-02-06T14:30:25.567Z,9852.00
2018-02-06T14:32:18.973Z,9688.00
2018-02-06T14:33:18.959Z,9616.00
2018-02-06T14:35:12.338Z,9212.00
2018-02-06T14:36:12.347Z,8728.00
2018-02-06T14:38:05.742Z,7860.00
2018-02-06T14:39:05.728Z,7908.00
2018-02-06T14:40:59.115Z,7980.00
2018-02-06T14:41:59.129Z,8016.00
2018-02-06T14:43:52.518Z,8504.00
2018-02-06T14:44:52.501Z,8540.00
2018-02-06T14:46:45.887Z,8056.00
2018-02-06T14:47:45.888Z,8488.00
2018-02-06T14:49:39.296Z,13416.00
2018-02-06T14:50:39.274Z,13736.00
2018-02-06T14:52:32.713Z,10056.00
2018-02-06T14:53:32.662Z,8960.00
2018-02-06T14:55:26.061Z,9040.00
2018-02-06T14:56:26.050Z,9792.00
2018-02-06T14:58:19.451Z,8244.00
2018-02-06T14:59:19.437Z,7656.00
2018-02-06T15:01:12.817Z,7120.00
2018-02-06T15:02:12.822Z,7036.00
2018-02-06T15:04:06.222Z,6704.00
2018-02-06T15:05:06.205Z,6420.00
2018-02-06T15:06:59.596Z,5828.00
2018-02-06T15:07:59.599Z,5672.00
2018-02-06T15:09:52.998Z,5368.00
2018-02-06T15:10:52.981Z,5496.00
2018-02-06T15:12:46.366Z,5636.00
2018-02-06T15:13:46.370Z,5632.00
2018-02-06T15:15:39.773Z,5168.00
2018-02-06T15:16:39.753Z,4816.00
2018-02-06T15:18:33.140Z,4272.00
2018-02-06T15:19:33.142Z,4124.00
2018-02-06T15:21:26.546Z,3812.00
2018-02-06T15:22:26.530Z,3684.00
2018-02-06T15:24:19.907Z,3552.00
2018-02-06T15:25:19.931Z,3336.00
2018-02-06T15:27:13.316Z,3252.00
2018-02-06T15:28:13.296Z,3216.00
2018-02-06T15:30:06.738Z,3168.00
2018-02-06T15:31:06.683Z,3244.00
2018-02-06T15:33:00.071Z,3376.00
2018-02-06T15:34:00.098Z,3244.00
2018-02-06T15:35:53.471Z,3288.00
2018-02-06T15:36:53.462Z,3364.00
2018-02-06T15:38:46.836Z,3504.00
2018-02-06T15:39:46.840Z,3544.00
2018-02-06T15:41:40.240Z,3704.00
2018-02-06T15:42:40.223Z,3664.00
2018-02-06T15:44:33.607Z,3416.00
2018-02-06T15:45:33.607Z,3308.00
2018-02-06T15:47:27.006Z,3260.00
2018-02-06T15:48:26.993Z,2948.00
2018-02-06T15:50:20.376Z,2600.00
2018-02-06T15:51:20.373Z,2556.00
2018-02-06T15:53:13.774Z,2504.00
2018-02-06T15:54:13.759Z,2452.00
2018-02-06T15:56:07.140Z,2292.00
2018-02-06T15:57:07.140Z,2252.00
2018-02-06T15:59:00.544Z,2128.00
2018-02-06T16:00:00.531Z,1988.00
2018-02-06T16:01:53.913Z,1732.00
2018-02-06T16:02:53.913Z,1628.00
2018-02-06T16:04:47.310Z,1452.00
2018-02-06T16:05:47.292Z,1360.00
2018-02-06T16:07:40.693Z,1220.00
2018-02-06T16:08:40.728Z,1148.00
2018-02-06T16:10:34.076Z,1008.00
2018-02-06T16:11:34.063Z,936.00
2018-02-06T16:13:27.467Z,800.00
2018-02-06T16:14:27.440Z,736.00
2018-02-06T16:16:20.832Z,632.00
2018-02-06T16:17:20.823Z,584.00
2018-02-06T16:19:14.225Z,512.00
2018-02-06T16:20:14.209Z,480.00
2018-02-06T16:22:07.627Z,408.00
2018-02-06T16:23:07.596Z,376.00
2018-02-06T16:25:01.001Z,324.00
2018-02-06T16:26:00.982Z,300.00
2018-02-06T16:27:54.366Z,256.00
2018-02-06T16:28:54.361Z,232.00
2018-02-06T16:30:47.767Z,196.00
2018-02-06T16:31:47.746Z,172.00
2018-02-06T16:33:41.125Z,140.00
2018-02-06T16:34:41.131Z,120.00
2018-02-06T16:36:34.527Z,96.00
2018-02-06T16:37:34.507Z,80.00
2018-02-06T16:39:27.889Z,64.00
2018-02-06T16:40:27.895Z,56.00
2018-02-06T16:42:21.288Z,40.00
2018-02-06T16:43:21.272Z,36.00
2018-02-06T16:45:14.652Z,28.00
2018-02-06T16:46:14.656Z,20.00
2018-02-06T16:48:08.050Z,16.00
2018-02-06T16:49:08.033Z,12.00
2018-02-06T16:51:01.434Z,12.00
2018-02-06T16:52:01.413Z,8.00
2018-02-06T16:53:54.819Z,4.00
2018-02-06T16:54:54.793Z,4.00
2018-02-06T16:56:48.204Z,4.00
2018-02-06T16:57:48.184Z,0.00
2018-02-06T16:59:41.566Z,4.00
2018-02-06T17:00:41.564Z,0.00
2018-02-06T17:02:34.961Z,0.00
2018-02-06T17:03:34.943Z,0.00
2018-02-06T17:05:28.324Z,0.00
2018-02-06T17:06:28.325Z,0.00
2018-02-06T17:08:21.724Z,0.00
2018-02-06T17:09:21.705Z,0.00
2018-02-06T17:11:15.086Z,0.00
2018-02-06T17:12:15.086Z,0.00
2018-02-06T17:14:08.485Z,0.00
2018-02-06T17:15:08.468Z,0.00
2018-02-06T17:17:01.859Z,0.00
2018-02-06T17:18:01.860Z,0.00
2018-02-06T17:19:55.294Z,0.00
2018-02-06T17:20:55.270Z,0.00
2018-02-06T17:22:48.650Z,0.00
2018-02-06T17:23:48.656Z,0.00
2018-02-06T17:25:42.052Z,0.00
2018-02-06T17:26:42.032Z,0.00
2018-02-06T17:28:35.414Z,0.00
2018-02-06T17:29:35.413Z,0.00
2018-02-06T17:31:28.810Z,0.00
2018-02-06T17:32:28.795Z,0.00
2018-02-06T17:34:22.172Z,0.00
2018-02-06T17:35:22.173Z,0.00
2018-02-06T17:37:15.574Z,0.00
2018-02-06T17:38:15.555Z,0.00
2018-02-06T17:40:08.996Z,0.00
2018-02-06T17:41:08.935Z,0.00
2018-02-06T17:43:02.317Z,0.00
2018-02-06T17:44:02.316Z,0.00
2018-02-06T17:45:55.765Z,0.00
2018-02-06T17:46:55.785Z,0.00
2018-02-06T17:48:49.137Z,0.00
2018-02-06T17:49:49.095Z,0.00
2018-02-06T17:51:42.541Z,0.00
2018-02-06T17:52:42.484Z,0.00
2018-02-06T17:54:35.900Z,0.00
2018-02-06T17:55:35.889Z,0.00
2018-02-06T17:57:29.298Z,0.00
2018-02-06T17:58:29.260Z,0.00
2018-02-06T18:00:23.678Z,0.00
2018-02-06T18:01:23.671Z,0.00
2018-02-06T18:03:18.064Z,0.00
2018-02-06T18:04:18.051Z,0.00
2018-02-06T18:06:11.440Z,0.00
2018-02-06T18:07:11.416Z,0.00
2018-02-06T18:09:04.837Z,0.00
2018-02-06T18:10:04.804Z,0.00
2018-02-06T18:11:58.173Z,0.00
2018-02-06T18:12:58.209Z,0.00
2018-02-06T18:14:51.602Z,0.00
2018-02-06T18:15:51.593Z,0.00
2018-02-06T18:17:44.936Z,0.00
2018-02-06T18:18:44.968Z,0.00
2018-02-06T18:20:38.338Z,0.00
2018-02-06T18:21:38.356Z,0.00
2018-02-06T18:23:32.744Z,0.00
2018-02-06T18:24:32.709Z,0.00
2018-02-06T18:26:26.129Z,0.00
2018-02-06T18:27:26.166Z,0.00
2018-02-06T18:29:19.565Z,0.00
2018-02-06T18:30:19.520Z,0.00
2018-02-06T18:32:12.904Z,0.00
2018-02-06T18:33:12.865Z,0.00
2018-02-06T18:35:06.376Z,0.00
2018-02-06T18:36:06.307Z,0.00
2018-02-06T18:37:59.654Z,0.00
2018-02-06T18:38:59.658Z,0.00
2018-02-06T18:40:53.092Z,0.00
2018-02-06T18:41:53.064Z,0.00
2018-02-06T18:43:46.448Z,0.00
2018-02-06T18:44:46.478Z,0.00
2018-02-06T18:46:39.836Z,0.00
2018-02-06T18:47:39.837Z,0.00
2018-02-06T18:49:33.236Z,0.00
2018-02-06T18:50:33.206Z,0.00
2018-02-06T18:52:26.594Z,0.00
2018-02-06T18:53:26.655Z,0.00
2018-02-06T18:55:20.972Z,0.00
2018-02-06T18:56:20.993Z,0.00
2018-02-06T18:58:14.394Z,0.00
2018-02-06T18:59:14.381Z,0.00
2018-02-06T19:01:07.725Z,0.00
2018-02-06T19:02:07.766Z,0.00
2018-02-06T19:04:01.124Z,0.00
2018-02-06T19:05:01.106Z,0.00
2018-02-06T19:06:54.503Z,0.00
2018-02-06T19:07:54.488Z,0.00
2018-02-06T19:09:47.878Z,0.00
2018-02-06T19:10:47.861Z,0.00
2018-02-06T19:12:41.326Z,0.00
2018-02-06T19:13:41.265Z,0.00
2018-02-06T19:15:34.676Z,0.00
2018-02-06T19:16:34.642Z,0.00
2018-02-06T19:18:28.103Z,0.00
2018-02-06T19:19:28.026Z,0.00
2018-02-06T19:21:21.384Z,0.00
2018-02-06T19:22:21.382Z,0.00
2018-02-06T19:24:14.828Z,0.00
2018-02-06T19:25:14.764Z,0.00
2018-02-06T19:27:08.140Z,0.00
2018-02-06T19:28:08.140Z,0.00
2018-02-06T19:30:01.541Z,0.00
2018-02-06T19:31:01.517Z,0.00
2018-02-06T19:32:54.898Z,0.00
2018-02-06T19:33:54.897Z,0.00
2018-02-06T19:35:48.302Z,0.00
2018-02-06T19:36:48.302Z,0.00
2018-02-06T19:38:41.664Z,0.00
2018-02-06T19:39:41.685Z,0.00
2018-02-06T19:41:35.064Z,0.00
2018-02-06T19:42:35.083Z,0.00
2018-02-06T19:44:28.462Z,0.00
2018-02-06T19:45:28.435Z,0.00
2018-02-06T19:47:22.846Z,0.00
2018-02-06T19:48:22.818Z,0.00
2018-02-06T19:50:16.189Z,0.00
2018-02-06T19:51:16.209Z,0.00
2018-02-06T19:53:09.595Z,0.00
2018-02-06T19:54:09.562Z,0.00
2018-02-06T19:56:02.993Z,0.00
2018-02-06T19:57:02.967Z,0.00
2018-02-06T19:58:57.361Z,0.00
2018-02-06T19:59:57.323Z,0.00
2018-02-06T20:01:50.737Z,0.00
2018-02-06T20:02:50.750Z,0.00
2018-02-06T20:04:44.076Z,0.00
2018-02-06T20:05:44.109Z,0.00